Time;durP1;ratioP1;P1;durP2;ratioP2;P2;SDS_P1;SDS_P2;PMS_P1;PMS_P2;Temp;Humidity;BMP_temperature;BMP_pressure;BME280_temperature;BME280_humidity;BME280_pressure;Samples;Min_cycle;Max_cycle;Signal;HPM_P1;HPM_P2
2024/01/15 00:01:44;;;;;;;5.07;4.00;;;12.70;84.40;;;;;;4903692;29;20529;-75
2024/01/15 00:04:10;;;;;;;4.10;3.70;;;12.70;84.40;;;;;;4903776;29;20188;-75
2024/01/15 00:06:36;;;;;;;4.40;3.80;;;12.70;84.30;;;;;;4902968;29;20177;-75
2024/01/15 00:09:02;;;;;;;4.30;3.90;;;12.70;84.40;;;;;;4902925;29;20434;-75
2024/01/15 00:11:28;;;;;;;4.90;4.23;;;12.70;84.30;;;;;;4903194;29;20569;-74
2024/01/15 00:13:53;;;;;;;4.80;4.30;;;12.70;84.20;;;;;;4903211;29;20187;-74
2024/01/15 00:16:19;;;;;;;4.40;3.77;;;12.70;84.20;;;;;;4902818;29;20200;-74
2024/01/15 00:18:45;;;;;;;4.33;3.93;;;12.70;84.30;;;;;;4903336;29;20180;-74
2024/01/15 00:21:11;;;;;;;4.20;3.80;;;12.70;84.20;;;;;;4904006;29;20521;-75
2024/01/15 00:23:37;;;;;;;4.30;3.90;;;12.70;84.20;;;;;;4902645;29;20181;-73
2024/01/15 00:26:02;;;;;;;4.60;3.87;;;12.70;84.30;;;;;;4902241;29;20186;-74
2024/01/15 00:28:29;;;;;;;4.13;3.73;;;12.60;84.20;;;;;;4902188;29;20203;-73
2024/01/15 00:30:55;;;;;;;4.00;3.60;;;12.60;84.20;;;;;;4901872;29;20190;-73
2024/01/15 00:33:21;;;;;;;4.23;3.83;;;12.60;84.20;;;;;;4903650;29;20173;-73
2024/01/15 00:35:46;;;;;;;4.43;3.90;;;12.60;84.20;;;;;;4903203;29;20207;-73
2024/01/15 00:38:12;;;;;;;4.20;3.63;;;12.70;84.30;;;;;;4902780;29;20475;-74
2024/01/15 00:40:38;;;;;;;4.20;3.80;;;12.70;84.20;;;;;;4903573;29;20197;-73
2024/01/15 00:43:04;;;;;;;4.13;3.73;;;12.60;84.20;;;;;;4901973;29;20184;-74
2024/01/15 00:45:30;;;;;;;4.73;4.07;;;12.60;84.10;;;;;;4902432;29;20187;-75
2024/01/15 00:48:03;;;;;;;4.33;3.93;;;12.60;84.10;;;;;;4902545;29;20570;-74
2024/01/15 00:50:29;;;;;;;4.27;3.87;;;12.60;84.20;;;;;;4902571;29;20591;-74
2024/01/15 00:52:55;;;;;;;5.13;4.27;;;12.60;84.20;;;;;;4903057;29;20173;-75
2024/01/15 00:55:20;;;;;;;4.40;3.93;;;12.60;84.20;;;;;;4902804;29;20186;-74
2024/01/15 00:57:47;;;;;;;4.20;3.77;;;12.60;84.20;;;;;;4902489;29;20178;-75
2024/01/15 01:00:14;;;;;;;4.40;4.00;;;12.60;84.20;;;;;;4901192;29;20258;-74
2024/01/15 01:02:39;;;;;;;4.27;3.70;;;12.60;84.10;;;;;;4902871;29;20174;-74
2024/01/15 01:05:05;;;;;;;4.20;3.80;;;12.70;84.30;;;;;;4902115;29;20276;-73
2024/01/15 01:07:34;;;;;;;4.50;4.07;;;12.60;84.20;;;;;;4902492;29;20173;-73
2024/01/15 01:09:59;;;;;;;4.20;3.80;;;12.60;84.10;;;;;;4901907;29;20244;-74
2024/01/15 01:12:25;;;;;;;4.13;3.73;;;12.70;84.20;;;;;;4901665;29;20177;-73
2024/01/15 01:14:50;;;;;;;4.30;3.90;;;12.60;84.20;;;;;;4901549;29;20202;-73
2024/01/15 01:17:16;;;;;;;5.20;3.87;;;12.60;84.20;;;;;;4901627;29;20204;-73
2024/01/15 01:19:42;;;;;;;4.10;3.70;;;12.60;84.20;;;;;;4902477;29;20324;-74
2024/01/15 01:22:08;;;;;;;4.20;3.80;;;12.60;84.20;;;;;;4901818;29;20174;-73
2024/01/15 01:24:34;;;;;;;4.40;4.00;;;12.60;84.20;;;;;;4902296;29;20202;-73
2024/01/15 01:26:59;;;;;;;4.20;3.80;;;12.60;84.10;;;;;;4901731;29;20186;-73
2024/01/15 01:29:26;;;;;;;4.43;4.00;;;12.70;84.20;;;;;;4902082;29;20207;-73
2024/01/15 01:31:52;;;;;;;4.47;4.03;;;12.60;84.10;;;;;;4901143;29;20198;-73
2024/01/15 01:34:18;;;;;;;5.00;4.27;;;12.60;84.10;;;;;;4900104;29;20178;-73
2024/01/15 01:36:44;;;;;;;4.67;4.10;;;12.60;84.10;;;;;;4901946;29;20208;-73
2024/01/15 01:39:10;;;;;;;4.93;4.50;;;12.60;84.10;;;;;;4900698;29;20208;-73
2024/01/15 01:41:36;;;;;;;4.43;3.73;;;12.60;83.90;;;;;;4900080;29;20175;-73
2024/01/15 01:44:02;;;;;;;4.57;3.80;;;12.60;84.00;;;;;;4901228;29;20188;-73
2024/01/15 01:46:28;;;;;;;5.43;4.20;;;12.60;84.00;;;;;;4901206;29;20240;-73
2024/01/15 01:48:56;;;;;;;4.30;3.90;;;12.60;84.00;;;;;;4900255;29;20181;-73
2024/01/15 01:51:25;;;;;;;4.80;4.20;;;12.60;84.00;;;;;;4899900;29;20239;-73
2024/01/15 01:53:53;;;;;;;5.27;4.10;;;12.60;84.00;;;;;;4899985;29;20236;-73
2024/01/15 01:56:19;;;;;;;4.57;4.00;;;12.60;84.10;;;;;;4900399;29;20234;-73
2024/01/15 01:58:46;;;;;;;4.60;4.17;;;12.60;84.10;;;;;;4899620;29;20192;-73
2024/01/15 02:01:12;;;;;;;4.90;4.13;;;12.60;84.10;;;;;;4899843;29;20240;-74
2024/01/15 02:03:40;;;;;;;5.47;4.10;;;12.60;84.00;;;;;;4900391;29;20249;-73
2024/01/15 02:06:06;;;;;;;4.13;3.63;;;12.60;84.10;;;;;;4900797;29;20177;-73
2024/01/15 02:08:32;;;;;;;4.77;4.30;;;12.60;84.00;;;;;;4900982;29;20215;-74
2024/01/15 02:10:57;;;;;;;4.20;3.80;;;12.60;84.10;;;;;;4901179;29;20225;-74
2024/01/15 02:13:23;;;;;;;5.33;3.60;;;12.60;84.00;;;;;;4901307;29;20175;-73
2024/01/15 02:15:49;;;;;;;4.90;4.33;;;12.60;84.10;;;;;;4900325;29;20299;-73
2024/01/15 02:18:15;;;;;;;4.57;4.10;;;12.70;84.20;;;;;;4901473;29;20268;-73
2024/01/15 02:20:44;;;;;;;4.17;3.77;;;12.60;83.90;;;;;;4901357;29;20247;-73
2024/01/15 02:23:10;;;;;;;4.60;4.10;;;12.60;84.00;;;;;;4900453;29;20463;-73
2024/01/15 02:25:39;;;;;;;4.37;3.97;;;12.60;84.10;;;;;;4901381;29;20182;-73
2024/01/15 02:28:06;;;;;;;4.30;3.83;;;12.60;84.10;;;;;;4900262;29;20660;-74
2024/01/15 02:30:38;;;;;;;4.40;4.00;;;12.60;83.90;;;;;;4900956;29;20221;-73
2024/01/15 02:33:04;;;;;;;4.60;3.90;;;12.60;83.90;;;;;;4900621;29;20220;-73
2024/01/15 02:35:30;;;;;;;4.40;4.00;;;12.60;83.90;;;;;;4901468;29;20816;-76
2024/01/15 02:37:56;;;;;;;5.53;4.30;;;12.60;83.80;;;;;;4901172;29;20249;-76
2024/01/15 02:40:22;;;;;;;4.10;3.70;;;12.60;83.80;;;;;;4901200;29;20201;-74
2024/01/15 02:42:48;;;;;;;4.30;3.90;;;12.60;83.90;;;;;;4901336;29;20208;-74
2024/01/15 02:45:14;;;;;;;4.53;4.00;;;12.60;83.90;;;;;;4901880;29;20575;-75
2024/01/15 02:47:39;;;;;;;4.20;3.80;;;12.60;83.80;;;;;;4901090;29;20331;-75
2024/01/15 02:50:06;;;;;;;4.93;3.97;;;12.60;84.00;;;;;;4901189;29;20216;-75
2024/01/15 02:52:32;;;;;;;4.57;3.90;;;12.60;84.00;;;;;;4899951;29;20174;-74
2024/01/15 02:54:57;;;;;;;4.03;3.63;;;12.60;83.90;;;;;;4900548;29;20183;-74
2024/01/15 02:57:23;;;;;;;5.20;4.00;;;12.70;84.10;;;;;;4899760;29;20244;-74
2024/01/15 02:59:49;;;;;;;4.93;4.43;;;12.60;83.90;;;;;;4899813;29;20284;-74
2024/01/15 03:02:15;;;;;;;5.20;4.07;;;12.60;83.90;;;;;;4899641;29;20183;-74
2024/01/15 03:04:44;;;;;;;4.43;4.03;;;12.60;83.90;;;;;;4899950;29;20181;-75
2024/01/15 03:07:10;;;;;;;4.43;4.00;;;12.60;84.00;;;;;;4899436;29;20181;-73
2024/01/15 03:09:36;;;;;;;4.37;3.90;;;12.60;83.90;;;;;;4901438;29;20336;-73
2024/01/15 03:12:02;;;;;;;4.30;3.90;;;12.60;83.90;;;;;;4903923;29;20184;-73
2024/01/15 03:14:28;;;;;;;4.70;4.00;;;12.60;83.90;;;;;;4903468;29;20182;-73
2024/01/15 03:16:54;;;;;;;4.30;3.90;;;12.60;83.90;;;;;;4905474;29;20232;-74
2024/01/15 03:19:25;;;;;;;4.50;3.63;;;12.60;83.80;;;;;;4904366;29;20185;-73
2024/01/15 03:21:51;;;;;;;4.13;3.73;;;12.60;83.80;;;;;;4904781;29;20181;-74
2024/01/15 03:24:16;;;;;;;4.23;3.80;;;12.60;83.80;;;;;;4904397;29;20201;-73
2024/01/15 03:26:42;;;;;;;4.43;3.80;;;12.60;83.80;;;;;;4904270;29;20178;-73
2024/01/15 03:29:19;;;;;;;4.20;3.80;;;12.60;83.80;;;;;;4904320;29;20189;-74
2024/01/15 03:31:45;;;;;;;4.63;3.97;;;12.60;83.90;;;;;;4904109;29;20179;-73
2024/01/15 03:34:11;;;;;;;4.50;4.00;;;12.60;83.70;;;;;;4903752;29;20608;-74
2024/01/15 03:36:36;;;;;;;4.60;4.10;;;12.60;83.70;;;;;;4903591;29;20751;-73
2024/01/15 03:39:03;;;;;;;4.30;3.90;;;12.60;83.80;;;;;;4903781;29;20210;-74
2024/01/15 03:41:29;;;;;;;4.30;3.90;;;12.60;83.80;;;;;;4903638;29;20205;-74
2024/01/15 03:43:55;;;;;;;5.27;4.00;;;12.60;83.70;;;;;;4903363;29;20528;-73
2024/01/15 03:46:21;;;;;;;4.17;3.77;;;12.60;83.80;;;;;;4903387;29;20193;-74
2024/01/15 03:48:46;;;;;;;4.23;3.80;;;12.60;83.80;;;;;;4903962;29;20185;-74
2024/01/15 03:51:12;;;;;;;4.63;3.70;;;12.60;83.80;;;;;;4903090;29;20597;-74
2024/01/15 03:53:39;;;;;;;4.33;3.77;;;12.60;83.70;;;;;;4903594;29;20185;-76
2024/01/15 03:56:05;;;;;;;5.07;3.70;;;12.60;83.80;;;;;;4903581;29;20576;-75
2024/01/15 03:58:31;;;;;;;4.33;3.70;;;12.60;83.60;;;;;;4903876;29;20190;-74
2024/01/15 04:00:56;;;;;;;4.50;3.90;;;12.60;83.70;;;;;;4903688;29;20206;-74
2024/01/15 04:03:22;;;;;;;4.60;3.73;;;12.60;83.70;;;;;;4903751;29;20182;-74
2024/01/15 04:05:48;;;;;;;5.47;3.77;;;12.60;83.70;;;;;;4903903;29;20170;-74
2024/01/15 04:08:14;;;;;;;4.67;4.13;;;12.60;83.70;;;;;;4903467;29;20178;-75
2024/01/15 04:10:39;;;;;;;4.17;3.73;;;12.60;83.80;;;;;;4903976;29;20187;-75
2024/01/15 04:13:07;;;;;;;7.27;3.67;;;12.60;83.70;;;;;;4904167;29;20288;-75
2024/01/15 04:15:33;;;;;;;4.97;3.63;;;12.60;83.70;;;;;;4903867;29;20327;-76
2024/01/15 04:18:01;;;;;;;5.67;3.90;;;12.60;83.70;;;;;;4903624;29;20213;-77
2024/01/15 04:20:27;;;;;;;4.10;3.57;;;12.60;83.60;;;;;;4902700;29;20256;-74
2024/01/15 04:22:54;;;;;;;4.33;3.70;;;12.60;83.70;;;;;;4903435;29;20432;-76
2024/01/15 04:25:20;;;;;;;4.10;3.70;;;12.60;83.60;;;;;;4903958;29;20177;-76
2024/01/15 04:27:45;;;;;;;5.33;4.07;;;12.60;83.60;;;;;;4903394;29;20174;-75
2024/01/15 04:30:12;;;;;;;3.97;3.57;;;12.60;83.70;;;;;;4902823;29;20177;-74
2024/01/15 04:32:38;;;;;;;4.50;3.40;;;12.60;83.70;;;;;;4902649;29;20280;-74
2024/01/15 04:35:04;;;;;;;4.30;3.47;;;12.60;83.70;;;;;;4902946;29;20175;-74
2024/01/15 04:37:30;;;;;;;4.37;3.33;;;12.60;83.80;;;;;;4902726;29;20181;-74
2024/01/15 04:39:57;;;;;;;3.50;3.20;;;12.60;83.70;;;;;;4902338;29;20215;-73
2024/01/15 04:42:24;;;;;;;4.53;3.60;;;12.60;83.60;;;;;;4902429;29;20244;-74
2024/01/15 04:44:50;;;;;;;4.03;3.20;;;12.60;83.60;;;;;;4902729;29;20189;-73
2024/01/15 04:47:16;;;;;;;3.67;3.17;;;12.60;83.70;;;;;;4901710;29;20609;-73
2024/01/15 04:49:42;;;;;;;4.73;3.37;;;12.60;83.70;;;;;;4901490;29;20182;-73
2024/01/15 04:52:10;;;;;;;3.70;3.30;;;12.60;83.60;;;;;;4901491;29;20164;-73
2024/01/15 04:54:36;;;;;;;3.93;3.30;;;12.60;83.60;;;;;;4901827;29;20183;-74
2024/01/15 04:57:02;;;;;;;3.87;3.43;;;12.60;83.60;;;;;;4902062;29;20174;-74
2024/01/15 04:59:28;;;;;;;4.27;3.20;;;12.60;83.50;;;;;;4901246;29;20272;-74
2024/01/15 05:01:55;;;;;;;3.50;3.10;;;12.60;83.50;;;;;;4901648;29;20178;-74
2024/01/15 05:04:21;;;;;;;3.77;3.10;;;12.60;83.60;;;;;;4901392;29;20211;-74
2024/01/15 05:06:46;;;;;;;3.20;2.87;;;12.60;83.50;;;;;;4902096;29;20179;-74
2024/01/15 05:09:13;;;;;;;4.13;3.17;;;12.60;83.50;;;;;;4902216;29;20240;-74
2024/01/15 05:11:41;;;;;;;4.27;3.00;;;12.60;83.50;;;;;;4900631;29;20503;-75
2024/01/15 05:14:06;;;;;;;4.33;3.13;;;12.60;83.40;;;;;;4901200;29;20246;-75
2024/01/15 05:16:32;;;;;;;4.03;2.70;;;12.60;83.40;;;;;;4901799;29;20186;-74
2024/01/15 05:18:58;;;;;;;3.27;2.97;;;12.60;83.30;;;;;;4900835;29;20245;-75
2024/01/15 05:21:24;;;;;;;3.13;2.67;;;12.60;83.30;;;;;;4900771;29;20215;-75
2024/01/15 05:23:50;;;;;;;3.40;2.90;;;12.60;83.30;;;;;;4900503;29;20583;-74
2024/01/15 05:26:16;;;;;;;3.27;2.67;;;12.50;83.20;;;;;;4900480;29;20636;-75
2024/01/15 05:28:44;;;;;;;3.00;2.70;;;12.60;83.20;;;;;;4901313;29;20189;-74
2024/01/15 05:31:11;;;;;;;3.87;3.00;;;12.60;83.30;;;;;;4900677;29;20178;-78
2024/01/15 05:33:37;;;;;;;3.93;2.80;;;12.50;83.20;;;;;;4900301;29;20182;-75
2024/01/15 05:36:03;;;;;;;3.57;3.10;;;12.50;83.20;;;;;;4900334;29;20182;-75
2024/01/15 05:38:29;;;;;;;3.40;2.80;;;12.50;83.10;;;;;;4901013;29;20271;-75
2024/01/15 05:40:55;;;;;;;4.60;3.10;;;12.60;83.00;;;;;;4900730;29;20273;-75
2024/01/15 05:43:20;;;;;;;4.60;3.10;;;12.50;83.20;;;;;;4900201;29;20193;-74
2024/01/15 05:45:47;;;;;;;3.83;2.93;;;12.60;83.40;;;;;;4899733;29;20179;-75
2024/01/15 05:48:12;;;;;;;4.20;3.00;;;12.50;83.50;;;;;;4901017;29;20241;-74
2024/01/15 05:50:39;;;;;;;3.33;2.67;;;12.50;83.60;;;;;;4899977;29;20183;-75
2024/01/15 05:53:05;;;;;;;3.20;2.83;;;12.50;83.60;;;;;;4899372;29;20206;-75
2024/01/15 05:55:30;;;;;;;3.40;2.90;;;12.50;83.70;;;;;;4897185;29;20217;-74
2024/01/15 05:57:56;;;;;;;3.70;2.70;;;12.50;83.90;;;;;;4897955;29;20177;-75
2024/01/15 06:00:22;;;;;;;3.07;2.77;;;12.60;84.20;;;;;;4898022;29;20826;-75
2024/01/15 06:02:48;;;;;;;4.20;2.70;;;12.60;84.20;;;;;;4898351;29;20601;-74
2024/01/15 06:05:14;;;;;;;4.03;2.50;;;12.50;84.30;;;;;;4897411;29;20182;-75
2024/01/15 06:07:39;;;;;;;4.07;2.67;;;12.50;84.30;;;;;;4899348;29;20326;-74
2024/01/15 06:10:06;;;;;;;3.30;2.70;;;12.60;84.40;;;;;;4899218;29;20237;-74
2024/01/15 06:12:33;;;;;;;3.30;2.67;;;12.60;84.40;;;;;;4899988;29;20177;-74
2024/01/15 06:14:59;;;;;;;3.37;2.80;;;12.60;84.40;;;;;;4913139;29;20185;-75
2024/01/15 06:17:24;;;;;;;2.97;2.63;;;12.60;84.60;;;;;;4917329;29;20212;-75
2024/01/15 06:19:51;;;;;;;4.20;3.00;;;12.60;84.40;;;;;;4916426;29;20222;-75
2024/01/15 06:22:17;;;;;;;4.00;2.67;;;12.60;84.60;;;;;;4917127;29;20184;-75
2024/01/15 06:24:43;;;;;;;3.97;2.83;;;12.60;84.60;;;;;;4916778;29;20228;-75
2024/01/15 06:27:09;;;;;;;5.33;2.73;;;12.60;84.70;;;;;;4917138;29;20224;-74
2024/01/15 06:29:37;;;;;;;4.93;3.03;;;12.60;85.20;;;;;;4916535;29;20173;-75
2024/01/15 06:32:04;;;;;;;4.73;2.97;;;12.60;85.70;;;;;;4915591;29;20185;-75
2024/01/15 06:34:29;;;;;;;4.40;3.00;;;12.60;86.20;;;;;;4916167;29;20174;-75
2024/01/15 06:36:55;;;;;;;3.43;2.60;;;12.60;86.50;;;;;;4915288;29;20184;-74
2024/01/15 06:39:21;;;;;;;6.60;2.70;;;12.60;86.30;;;;;;4916149;29;20180;-75
2024/01/15 06:41:47;;;;;;;4.17;2.83;;;12.60;86.30;;;;;;4917209;29;20307;-75
2024/01/15 06:44:13;;;;;;;4.23;2.80;;;12.60;86.10;;;;;;4916965;29;20581;-75
2024/01/15 06:46:44;;;;;;;4.40;2.83;;;12.60;86.00;;;;;;4919511;29;20499;-75
2024/01/15 06:49:11;;;;;;;6.23;2.50;;;12.60;85.80;;;;;;4915400;29;20189;-74
2024/01/15 06:51:37;;;;;;;5.43;2.93;;;12.60;85.70;;;;;;4919608;29;20181;-75
2024/01/15 06:54:03;;;;;;;9.07;2.70;;;12.60;85.80;;;;;;4919320;29;20188;-75
2024/01/15 06:56:29;;;;;;;6.40;3.40;;;12.60;85.80;;;;;;4918522;29;20214;-75
2024/01/15 06:58:54;;;;;;;6.50;3.30;;;12.60;85.80;;;;;;4919637;29;20301;-75
2024/01/15 07:01:20;;;;;;;8.83;3.10;;;12.60;85.60;;;;;;4919191;29;20214;-75
2024/01/15 07:03:46;;;;;;;3.03;2.73;;;12.60;85.70;;;;;;4918045;29;20203;-75
2024/01/15 07:06:12;;;;;;;5.10;3.07;;;12.70;85.80;;;;;;4918070;29;20244;-75
2024/01/15 07:08:39;;;;;;;4.07;2.97;;;12.60;85.80;;;;;;4916858;29;20176;-74
2024/01/15 07:11:06;;;;;;;6.00;3.00;;;12.60;85.60;;;;;;4917054;29;20185;-75
2024/01/15 07:13:32;;;;;;;4.30;2.90;;;12.60;85.60;;;;;;4918119;29;20787;-75
2024/01/15 07:15:57;;;;;;;5.03;3.07;;;12.70;85.80;;;;;;4919428;29;20189;-75
2024/01/15 07:18:23;;;;;;;6.47;2.90;;;12.70;85.80;;;;;;4920409;29;20177;-75
2024/01/15 07:20:49;;;;;;;7.03;3.20;;;12.70;85.60;;;;;;4920068;29;20211;-75
2024/01/15 07:23:15;;;;;;;6.20;2.83;;;12.70;85.60;;;;;;4919008;29;20251;-75
2024/01/15 07:25:41;;;;;;;5.70;3.20;;;12.60;85.70;;;;;;4917835;29;20188;-75
2024/01/15 07:28:07;;;;;;;3.60;2.80;;;12.70;85.70;;;;;;4917995;29;20170;-75
2024/01/15 07:30:32;;;;;;;5.33;2.93;;;12.70;85.40;;;;;;4917920;29;20232;-75
2024/01/15 07:32:58;;;;;;;4.50;2.90;;;12.70;85.30;;;;;;4933079;29;20646;-75
2024/01/15 07:35:24;;;;;;;4.97;2.87;;;12.70;85.30;;;;;;4917660;29;20190;-75
2024/01/15 07:37:50;;;;;;;4.30;2.77;;;12.70;85.20;;;;;;4917576;29;20177;-75
2024/01/15 07:40:16;;;;;;;5.27;2.70;;;12.60;85.00;;;;;;4917713;29;20202;-75
2024/01/15 07:42:42;;;;;;;3.27;2.50;;;12.70;85.00;;;;;;4916260;29;20179;-75
2024/01/15 07:45:11;;;;;;;5.37;2.87;;;12.70;84.90;;;;;;4917785;29;20177;-75
2024/01/15 07:47:36;;;;;;;5.97;2.43;;;12.60;84.80;;;;;;4917060;29;20202;-75
2024/01/15 07:50:03;;;;;;;5.03;3.10;;;12.60;84.70;;;;;;4916770;29;20184;-75
2024/01/15 07:52:30;;;;;;;2.90;2.40;;;12.70;84.70;;;;;;4918135;29;20643;-75
2024/01/15 07:54:56;;;;;;;4.10;2.83;;;12.60;84.60;;;;;;4917069;29;20770;-75
2024/01/15 07:57:22;;;;;;;3.20;2.40;;;12.60;84.40;;;;;;4917300;29;20177;-75
2024/01/15 07:59:48;;;;;;;3.47;2.60;;;12.70;84.20;;;;;;4917658;29;20352;-75
2024/01/15 08:02:15;;;;;;;3.77;2.50;;;12.70;84.20;;;;;;4917270;29;20173;-75
2024/01/15 08:04:40;;;;;;;3.90;2.50;;;12.60;84.00;;;;;;4918616;29;20173;-75
2024/01/15 08:07:09;;;;;;;3.80;2.40;;;12.60;84.00;;;;;;4918445;29;20205;-75
2024/01/15 08:09:35;;;;;;;3.50;2.47;;;12.60;84.00;;;;;;4917384;29;20722;-74
2024/01/15 08:12:01;;;;;;;3.73;2.63;;;12.60;83.80;;;;;;4917306;29;20244;-74
2024/01/15 08:14:27;;;;;;;3.63;2.57;;;12.60;83.60;;;;;;4915363;29;20180;-75
2024/01/15 08:16:53;;;;;;;2.77;2.33;;;12.60;83.60;;;;;;4916888;29;20186;-75
2024/01/15 08:19:19;;;;;;;5.10;2.50;;;12.60;83.50;;;;;;4917277;29;20180;-75
2024/01/15 08:21:45;;;;;;;2.37;2.10;;;12.60;83.50;;;;;;4918415;29;20240;-75
2024/01/15 08:24:11;;;;;;;2.80;2.33;;;12.60;83.50;;;;;;4917649;29;20232;-75
2024/01/15 08:26:37;;;;;;;2.97;2.10;;;12.60;83.40;;;;;;4918707;29;20218;-75
2024/01/15 08:29:04;;;;;;;2.60;2.03;;;12.60;83.40;;;;;;4918665;29;20546;-75
2024/01/15 08:31:29;;;;;;;3.77;2.17;;;12.60;83.30;;;;;;4913008;29;20699;-75
2024/01/15 08:33:55;;;;;;;4.43;2.10;;;12.60;83.30;;;;;;4900128;29;20294;-75
2024/01/15 08:36:21;;;;;;;3.07;2.33;;;12.60;83.20;;;;;;4906718;29;20184;-74
2024/01/15 08:38:47;;;;;;;2.77;2.10;;;12.60;83.10;;;;;;4919036;29;20440;-74
2024/01/15 08:41:13;;;;;;;2.10;1.90;;;12.60;83.10;;;;;;4917766;29;20277;-74
2024/01/15 08:43:39;;;;;;;3.60;2.30;;;12.60;83.00;;;;;;4917084;29;20187;-74
2024/01/15 08:46:05;;;;;;;2.63;1.90;;;12.60;83.00;;;;;;4916214;29;20174;-74
2024/01/15 08:48:31;;;;;;;3.00;2.23;;;12.60;83.00;;;;;;4914122;29;20187;-74
2024/01/15 08:50:57;;;;;;;2.60;1.93;;;12.60;83.00;;;;;;4916045;29;20177;-74
2024/01/15 08:53:22;;;;;;;2.73;2.10;;;12.60;82.90;;;;;;4916399;29;20201;-74
2024/01/15 08:55:49;;;;;;;4.53;2.17;;;12.60;82.90;;;;;;4915643;29;20194;-74
2024/01/15 08:58:15;;;;;;;3.17;1.90;;;12.60;82.80;;;;;;4916186;29;20185;-74
2024/01/15 09:00:40;;;;;;;2.10;1.90;;;12.60;82.80;;;;;;4915128;29;20236;-74
2024/01/15 09:03:08;;;;;;;3.13;2.17;;;12.60;82.70;;;;;;4917437;29;20176;-75
2024/01/15 09:05:34;;;;;;;2.10;1.90;;;12.60;82.70;;;;;;4917919;29;20171;-74
2024/01/15 09:07:59;;;;;;;2.37;1.90;;;12.60;82.70;;;;;;4916779;29;20469;-74
2024/01/15 09:10:25;;;;;;;1.90;1.70;;;12.60;82.60;;;;;;4916055;29;20286;-74
2024/01/15 09:12:51;;;;;;;2.10;1.90;;;12.60;82.50;;;;;;4917067;29;20189;-74
2024/01/15 09:15:17;;;;;;;2.03;1.70;;;12.60;82.50;;;;;;4916646;29;20180;-74
2024/01/15 09:17:43;;;;;;;2.30;1.60;;;12.60;82.40;;;;;;4916481;29;20251;-74
2024/01/15 09:20:09;;;;;;;2.27;1.93;;;12.60;82.50;;;;;;4915816;29;20208;-75
2024/01/15 09:22:37;;;;;;;2.33;1.93;;;12.60;82.40;;;;;;4915808;29;20183;-75
2024/01/15 09:25:04;;;;;;;2.20;1.90;;;12.60;82.30;;;;;;4916515;29;20182;-75
2024/01/15 09:27:29;;;;;;;1.60;1.50;;;12.60;82.30;;;;;;4916832;29;20173;-75
2024/01/15 09:29:55;;;;;;;1.60;1.50;;;12.60;82.20;;;;;;4915611;29;20200;-74
2024/01/15 09:32:21;;;;;;;2.00;1.80;;;12.60;82.30;;;;;;4917388;29;20189;-74
2024/01/15 09:34:47;;;;;;;1.70;1.60;;;12.60;82.30;;;;;;4916722;29;20180;-74
2024/01/15 09:37:14;;;;;;;2.20;1.83;;;12.60;82.30;;;;;;4917125;29;20269;-74
2024/01/15 09:39:41;;;;;;;2.03;1.83;;;12.60;82.30;;;;;;4917183;29;20180;-74
2024/01/15 09:42:08;;;;;;;1.83;1.60;;;12.60;82.40;;;;;;4916047;29;20180;-76
2024/01/15 09:44:35;;;;;;;2.27;1.63;;;12.60;82.50;;;;;;4915125;29;20205;-75
2024/01/15 09:47:02;;;;;;;2.30;1.87;;;12.60;82.50;;;;;;4916496;29;20175;-75
2024/01/15 09:49:29;;;;;;;2.13;1.90;;;12.60;82.60;;;;;;4916283;29;20173;-75
2024/01/15 09:51:56;;;;;;;2.03;1.80;;;12.60;82.80;;;;;;4916979;29;20207;-76
2024/01/15 09:54:23;;;;;;;1.83;1.70;;;12.60;82.80;;;;;;4917004;29;20179;-75
2024/01/15 09:56:49;;;;;;;2.00;1.80;;;12.60;82.80;;;;;;4916660;29;20199;-76
2024/01/15 09:59:18;;;;;;;2.90;1.70;;;12.60;82.80;;;;;;4915106;29;20904;-76
2024/01/15 10:01:47;;;;;;;1.70;1.50;;;12.60;82.90;;;;;;4915669;29;20208;-76
2024/01/15 10:04:14;;;;;;;1.70;1.60;;;12.60;83.00;;;;;;4917350;29;20793;-76
2024/01/15 10:06:45;;;;;;;2.43;1.73;;;12.60;83.00;;;;;;4917415;29;20201;-76
2024/01/15 10:09:16;;;;;;;2.93;1.60;;;12.60;82.90;;;;;;4917336;29;20240;-76
2024/01/15 10:11:42;;;;;;;2.87;1.70;;;12.60;83.00;;;;;;4916516;29;20276;-76
2024/01/15 10:14:14;;;;;;;3.53;1.80;;;12.60;82.90;;;;;;4917035;29;20182;-76
2024/01/15 10:16:41;;;;;;;2.60;1.70;;;12.60;82.90;;;;;;4916592;29;20195;-76
2024/01/15 10:19:10;;;;;;;1.53;1.43;;;12.60;82.90;;;;;;4915752;29;20206;-76
2024/01/15 10:21:37;;;;;;;1.60;1.50;;;12.60;83.00;;;;;;4916847;29;20293;-74
2024/01/15 10:24:09;;;;;;;1.80;1.40;;;12.60;82.90;;;;;;4909454;29;20185;-74
2024/01/15 10:26:44;;;;;;;1.60;1.50;;;12.60;82.90;;;;;;4902514;29;20161;-76
2024/01/15 10:29:10;;;;;;;1.50;1.40;;;12.60;82.80;;;;;;4917514;29;20201;-75
2024/01/15 10:31:38;;;;;;;1.63;1.40;;;12.60;82.80;;;;;;4917584;29;20217;-74
2024/01/15 10:34:15;;;;;;;2.70;1.70;;;12.60;82.80;;;;;;4917044;29;20220;-75
2024/01/15 10:36:40;;;;;;;1.87;1.40;;;12.60;82.80;;;;;;4916180;29;20173;-75
2024/01/15 10:39:07;;;;;;;1.67;1.50;;;12.60;82.80;;;;;;4910532;29;20174;-75
2024/01/15 10:41:33;;;;;;;1.83;1.40;;;12.60;82.70;;;;;;4916340;29;20189;-75
2024/01/15 10:43:59;;;;;;;1.77;1.50;;;12.60;82.70;;;;;;4916699;29;20157;-75
2024/01/15 10:46:25;;;;;;;2.30;1.60;;;12.60;82.80;;;;;;4915840;29;20181;-75
2024/01/15 10:48:51;;;;;;;1.70;1.40;;;12.60;82.80;;;;;;4914651;29;20182;-74
2024/01/15 10:51:18;;;;;;;2.27;1.47;;;12.60;82.80;;;;;;4913381;29;20178;-74
2024/01/15 10:53:45;;;;;;;1.57;1.30;;;12.60;82.80;;;;;;4913858;29;20188;-74
2024/01/15 10:56:13;;;;;;;2.37;1.40;;;12.60;82.70;;;;;;4912177;29;20523;-74
2024/01/15 10:58:39;;;;;;;2.53;1.60;;;12.70;82.90;;;;;;4912766;29;20177;-72
2024/01/15 11:01:06;;;;;;;1.50;1.40;;;12.60;82.70;;;;;;4914260;29;20213;-72
2024/01/15 11:03:32;;;;;;;1.70;1.60;;;12.60;82.70;;;;;;4914583;29;20185;-72
2024/01/15 11:06:00;;;;;;;1.57;1.40;;;12.60;82.60;;;;;;4917602;29;20179;-72
2024/01/15 11:08:25;;;;;;;1.50;1.40;;;12.70;82.80;;;;;;4916807;29;20237;-71
2024/01/15 11:10:52;;;;;;;2.20;1.20;;;12.70;82.70;;;;;;4916109;29;20517;-72
2024/01/15 11:13:33;;;;;;;2.77;1.27;;;12.60;82.70;;;;;;4917311;29;20183;-71
2024/01/15 11:16:12;;;;;;;2.27;1.40;;;12.70;82.80;;;;;;4916536;29;20189;-71
2024/01/15 11:18:42;;;;;;;1.77;1.43;;;12.70;82.70;;;;;;4916473;29;20193;-72
2024/01/15 11:21:17;;;;;;;1.80;1.60;;;12.70;82.80;;;;;;4917088;29;20217;-72
2024/01/15 11:23:46;;;;;;;1.27;1.17;;;12.70;82.60;;;;;;4916174;29;20181;-72
2024/01/15 11:26:30;;;;;;;1.70;1.20;;;12.70;82.70;;;;;;4915865;29;20171;-72
2024/01/15 11:28:58;;;;;;;1.33;1.23;;;12.70;82.70;;;;;;4916653;29;20171;-72
2024/01/15 11:31:50;;;;;;;1.50;1.33;;;12.70;82.70;;;;;;4918872;29;20276;-72
2024/01/15 11:34:16;;;;;;;2.07;1.60;;;12.70;82.70;;;;;;4919275;29;20455;-74
2024/01/15 11:36:51;;;;;;;2.37;1.40;;;12.80;82.70;;;;;;4918453;29;20184;-74
2024/01/15 11:39:49;;;;;;;2.13;1.43;;;12.80;82.80;;;;;;4917546;29;20853;-73
2024/01/15 11:42:15;;;;;;;2.10;1.30;;;12.80;82.80;;;;;;4910717;29;20193;-74
2024/01/15 11:44:42;;;;;;;1.40;1.30;;;12.70;82.90;;;;;;4917482;29;20181;-74
2024/01/15 11:47:12;;;;;;;1.50;1.20;;;12.80;82.90;;;;;;4917460;29;20229;-74
2024/01/15 11:50:01;;;;;;;1.47;1.33;;;12.80;82.90;;;;;;4917311;29;20680;-74
2024/01/15 11:52:31;;;;;;;1.37;1.27;;;12.70;83.10;;;;;;4919035;29;20178;-74
2024/01/15 11:54:57;;;;;;;1.67;1.30;;;12.80;83.10;;;;;;4919630;29;20219;-74
2024/01/15 11:57:51;;;;;;;1.60;1.30;;;12.80;83.10;;;;;;4916753;29;20183;-74
2024/01/15 12:00:17;;;;;;;1.47;1.37;;;12.80;83.00;;;;;;4916424;29;20221;-74
2024/01/15 12:02:45;;;;;;;1.20;1.10;;;12.80;83.00;;;;;;4917715;29;20241;-74
2024/01/15 12:05:15;;;;;;;2.10;1.30;;;12.80;83.50;;;;;;4917430;29;20165;-74
2024/01/15 12:07:41;;;;;;;4.70;1.30;;;12.80;82.90;;;;;;4916759;29;20786;-74
2024/01/15 12:10:18;;;;;;;1.27;1.17;;;12.70;83.10;;;;;;4917685;29;20212;-74
2024/01/15 12:13:10;;;;;;;1.70;1.20;;;12.70;82.90;;;;;;4915433;29;20212;-74
2024/01/15 12:15:36;;;;;;;1.93;1.40;;;12.70;82.90;;;;;;4897365;29;20185;-74
2024/01/15 12:18:02;;;;;;;1.27;1.17;;;12.80;82.90;;;;;;4897822;29;20825;-74
2024/01/15 12:20:30;;;;;;;1.60;1.40;;;12.80;82.80;;;;;;4896244;29;20845;-75
2024/01/15 12:22:59;;;;;;;1.97;1.40;;;12.80;82.80;;;;;;4896630;29;20182;-76
2024/01/15 12:25:29;;;;;;;1.63;1.40;;;12.70;82.90;;;;;;4895409;29;20178;-71
2024/01/15 12:27:55;;;;;;;2.77;1.50;;;12.80;83.60;;;;;;4895904;29;20182;-71
2024/01/15 12:30:21;;;;;;;1.50;1.33;;;12.80;83.50;;;;;;4917550;29;20701;-71
2024/01/15 12:32:47;;;;;;;2.63;1.53;;;12.90;84.20;;;;;;4917201;29;20184;-71
2024/01/15 12:35:13;;;;;;;1.80;1.30;;;12.90;84.50;;;;;;4914803;29;20178;-71
2024/01/15 12:37:40;;;;;;;1.93;1.33;;;12.90;85.00;;;;;;4901202;29;20185;-71
2024/01/15 12:40:09;;;;;;;1.40;1.23;;;12.90;84.90;;;;;;4897319;29;20250;-71
2024/01/15 12:42:42;;;;;;;4.03;1.47;;;12.90;85.30;;;;;;4896972;29;20180;-71
2024/01/15 12:45:11;;;;;;;2.53;1.60;;;13.00;85.30;;;;;;4898276;29;20179;-71
2024/01/15 12:47:47;;;;;;;2.13;1.30;;;13.00;85.70;;;;;;4898005;29;20180;-71